sensor_id;sensor_type;location;lat;lon;timestamp;temperature;humidity
69189;DHT22;56302;52.322;5.926;2023-05-19T00:00:14;8.30;79.00
69189;DHT22;56302;52.322;5.926;2023-05-19T00:02:40;8.30;78.60
69189;DHT22;56302;52.322;5.926;2023-05-19T00:05:09;8.20;78.20
69189;DHT22;56302;52.322;5.926;2023-05-19T00:07:37;8.20;78.30
69189;DHT22;56302;52.322;5.926;2023-05-19T00:10:03;8.20;77.50
69189;DHT22;56302;52.322;5.926;2023-05-19T00:12:29;8.20;77.30
69189;DHT22;56302;52.322;5.926;2023-05-19T00:14:55;8.20;76.90
69189;DHT22;56302;52.322;5.926;2023-05-19T00:17:21;8.10;76.90
69189;DHT22;56302;52.322;5.926;2023-05-19T00:19:46;8.10;77.30
69189;DHT22;56302;52.322;5.926;2023-05-19T00:22:13;8.00;77.30
69189;DHT22;56302;52.322;5.926;2023-05-19T00:24:39;8.00;76.90
69189;DHT22;56302;52.322;5.926;2023-05-19T00:27:04;8.00;77.10
69189;DHT22;56302;52.322;5.926;2023-05-19T00:29:30;7.90;76.40
69189;DHT22;56302;52.322;5.926;2023-05-19T00:31:55;8.00;75.70
69189;DHT22;56302;52.322;5.926;2023-05-19T00:34:21;7.90;75.90
69189;DHT22;56302;52.322;5.926;2023-05-19T00:36:46;7.90;77.00
69189;DHT22;56302;52.322;5.926;2023-05-19T00:39:12;7.80;76.20
69189;DHT22;56302;52.322;5.926;2023-05-19T00:41:37;7.80;76.20
69189;DHT22;56302;52.322;5.926;2023-05-19T00:44:03;7.80;75.70
69189;DHT22;56302;52.322;5.926;2023-05-19T00:46:29;7.70;76.00
69189;DHT22;56302;52.322;5.926;2023-05-19T00:48:54;7.70;76.00
69189;DHT22;56302;52.322;5.926;2023-05-19T00:51:21;7.70;76.40
69189;DHT22;56302;52.322;5.926;2023-05-19T00:53:49;7.70;76.60
69189;DHT22;56302;52.322;5.926;2023-05-19T00:56:16;7.60;76.10
69189;DHT22;56302;52.322;5.926;2023-05-19T00:58:42;7.60;76.80
69189;DHT22;56302;52.322;5.926;2023-05-19T01:01:08;7.60;76.10
69189;DHT22;56302;52.322;5.926;2023-05-19T01:03:36;7.60;76.80
69189;DHT22;56302;52.322;5.926;2023-05-19T01:06:03;7.50;76.50
69189;DHT22;56302;52.322;5.926;2023-05-19T01:08:33;7.40;76.90
69189;DHT22;56302;52.322;5.926;2023-05-19T01:10:59;7.40;77.20
69189;DHT22;56302;52.322;5.926;2023-05-19T01:13:28;7.40;77.40
69189;DHT22;56302;52.322;5.926;2023-05-19T01:16:02;7.30;77.40
69189;DHT22;56302;52.322;5.926;2023-05-19T01:18:53;7.30;76.10
69189;DHT22;56302;52.322;5.926;2023-05-19T01:22:03;7.20;78.30
69189;DHT22;56302;52.322;5.926;2023-05-19T01:30:28;7.10;78.00
69189;DHT22;56302;52.322;5.926;2023-05-19T01:32:58;7.00;77.60
69189;DHT22;56302;52.322;5.926;2023-05-19T01:35:25;7.00;77.70
69189;DHT22;56302;52.322;5.926;2023-05-19T01:37:54;7.00;77.60
69189;DHT22;56302;52.322;5.926;2023-05-19T01:40:22;7.00;77.20
69189;DHT22;56302;52.322;5.926;2023-05-19T01:42:48;7.00;77.50
69189;DHT22;56302;52.322;5.926;2023-05-19T01:45:15;7.00;77.70
69189;DHT22;56302;52.322;5.926;2023-05-19T01:47:45;6.90;77.80
69189;DHT22;56302;52.322;5.926;2023-05-19T01:50:10;6.90;76.60
69189;DHT22;56302;52.322;5.926;2023-05-19T01:52:36;6.90;77.40
69189;DHT22;56302;52.322;5.926;2023-05-19T01:55:02;6.80;77.20
69189;DHT22;56302;52.322;5.926;2023-05-19T01:57:49;6.80;78.00
69189;DHT22;56302;52.322;5.926;2023-05-19T02:05:37;6.70;76.60
69189;DHT22;56302;52.322;5.926;2023-05-19T02:08:20;6.70;76.70
69189;DHT22;56302;52.322;5.926;2023-05-19T02:10:57;6.70;76.40
69189;DHT22;56302;52.322;5.926;2023-05-19T02:13:30;6.70;76.60
69189;DHT22;56302;52.322;5.926;2023-05-19T02:16:02;6.60;76.40
69189;DHT22;56302;52.322;5.926;2023-05-19T02:18:29;6.60;76.30
69189;DHT22;56302;52.322;5.926;2023-05-19T02:20:54;6.60;77.10
69189;DHT22;56302;52.322;5.926;2023-05-19T02:23:20;6.50;76.80
69189;DHT22;56302;52.322;5.926;2023-05-19T02:25:46;6.50;77.00
69189;DHT22;56302;52.322;5.926;2023-05-19T02:28:11;6.50;77.30
69189;DHT22;56302;52.322;5.926;2023-05-19T02:30:37;6.50;77.70
69189;DHT22;56302;52.322;5.926;2023-05-19T02:33:02;6.40;77.40
69189;DHT22;56302;52.322;5.926;2023-05-19T02:35:30;6.40;77.00
69189;DHT22;56302;52.322;5.926;2023-05-19T02:37:56;6.40;76.70
69189;DHT22;56302;52.322;5.926;2023-05-19T02:40:22;6.30;78.30
69189;DHT22;56302;52.322;5.926;2023-05-19T02:42:47;6.30;77.90
69189;DHT22;56302;52.322;5.926;2023-05-19T02:45:13;6.30;78.30
69189;DHT22;56302;52.322;5.926;2023-05-19T02:47:38;6.30;78.20
69189;DHT22;56302;52.322;5.926;2023-05-19T02:50:06;6.20;77.90
69189;DHT22;56302;52.322;5.926;2023-05-19T02:52:32;6.20;77.40
69189;DHT22;56302;52.322;5.926;2023-05-19T02:54:57;6.20;77.60
69189;DHT22;56302;52.322;5.926;2023-05-19T02:57:23;6.20;77.00
69189;DHT22;56302;52.322;5.926;2023-05-19T02:59:49;6.10;76.50
69189;DHT22;56302;52.322;5.926;2023-05-19T03:02:15;6.10;76.80
69189;DHT22;56302;52.322;5.926;2023-05-19T03:04:40;6.10;76.90
69189;DHT22;56302;52.322;5.926;2023-05-19T03:07:07;6.00;77.10
69189;DHT22;56302;52.322;5.926;2023-05-19T03:09:38;6.00;77.30
69189;DHT22;56302;52.322;5.926;2023-05-19T03:12:04;5.90;77.60
69189;DHT22;56302;52.322;5.926;2023-05-19T03:14:32;5.90;76.90
69189;DHT22;56302;52.322;5.926;2023-05-19T03:16:58;5.90;76.70
69189;DHT22;56302;52.322;5.926;2023-05-19T03:19:24;5.80;77.40
69189;DHT22;56302;52.322;5.926;2023-05-19T03:21:50;5.80;77.00
69189;DHT22;56302;52.322;5.926;2023-05-19T03:24:15;5.80;77.30
69189;DHT22;56302;52.322;5.926;2023-05-19T03:26:41;5.70;78.00
69189;DHT22;56302;52.322;5.926;2023-05-19T03:29:07;5.70;77.90
69189;DHT22;56302;52.322;5.926;2023-05-19T03:31:32;5.70;77.50
69189;DHT22;56302;52.322;5.926;2023-05-19T03:33:58;5.60;76.90
69189;DHT22;56302;52.322;5.926;2023-05-19T03:36:23;5.60;76.80
69189;DHT22;56302;52.322;5.926;2023-05-19T03:38:50;5.60;76.60
69189;DHT22;56302;52.322;5.926;2023-05-19T03:41:15;5.60;76.80
69189;DHT22;56302;52.322;5.926;2023-05-19T03:43:41;5.60;76.70
69189;DHT22;56302;52.322;5.926;2023-05-19T03:46:06;5.50;77.40
69189;DHT22;56302;52.322;5.926;2023-05-19T03:48:32;5.50;77.30
69189;DHT22;56302;52.322;5.926;2023-05-19T03:50:57;5.50;77.20
69189;DHT22;56302;52.322;5.926;2023-05-19T03:53:23;5.50;77.90
69189;DHT22;56302;52.322;5.926;2023-05-19T03:55:49;5.40;77.60
69189;DHT22;56302;52.322;5.926;2023-05-19T03:58:15;5.40;78.10
69189;DHT22;56302;52.322;5.926;2023-05-19T04:00:41;5.40;78.10
69189;DHT22;56302;52.322;5.926;2023-05-19T04:03:06;5.40;77.80
69189;DHT22;56302;52.322;5.926;2023-05-19T04:05:32;5.40;78.20
69189;DHT22;56302;52.322;5.926;2023-05-19T04:07:58;5.40;78.40
69189;DHT22;56302;52.322;5.926;2023-05-19T04:10:24;5.40;78.10
69189;DHT22;56302;52.322;5.926;2023-05-19T04:12:49;5.30;78.10
69189;DHT22;56302;52.322;5.926;2023-05-19T04:15:15;5.30;78.30
69189;DHT22;56302;52.322;5.926;2023-05-19T04:17:40;5.30;79.40
69189;DHT22;56302;52.322;5.926;2023-05-19T04:20:06;5.20;79.90
69189;DHT22;56302;52.322;5.926;2023-05-19T04:22:32;5.20;80.00
69189;DHT22;56302;52.322;5.926;2023-05-19T04:24:58;5.20;79.60
69189;DHT22;56302;52.322;5.926;2023-05-19T04:27:24;5.30;79.60
69189;DHT22;56302;52.322;5.926;2023-05-19T04:29:52;5.30;79.50
69189;DHT22;56302;52.322;5.926;2023-05-19T04:32:19;5.30;80.30
69189;DHT22;56302;52.322;5.926;2023-05-19T04:34:44;5.30;80.10
69189;DHT22;56302;52.322;5.926;2023-05-19T04:37:13;5.30;81.00
69189;DHT22;56302;52.322;5.926;2023-05-19T04:39:41;5.30;80.50
69189;DHT22;56302;52.322;5.926;2023-05-19T04:42:11;5.40;80.60
69189;DHT22;56302;52.322;5.926;2023-05-19T04:44:39;5.40;80.50
69189;DHT22;56302;52.322;5.926;2023-05-19T04:47:07;5.40;80.60
69189;DHT22;56302;52.322;5.926;2023-05-19T04:49:36;5.40;80.90
69189;DHT22;56302;52.322;5.926;2023-05-19T04:52:09;5.40;81.00
69189;DHT22;56302;52.322;5.926;2023-05-19T04:54:35;5.50;81.50
69189;DHT22;56302;52.322;5.926;2023-05-19T04:57:01;5.50;82.20
69189;DHT22;56302;52.322;5.926;2023-05-19T04:59:27;5.50;82.10
69189;DHT22;56302;52.322;5.926;2023-05-19T05:01:52;5.60;82.30
69189;DHT22;56302;52.322;5.926;2023-05-19T05:04:18;5.60;82.60
69189;DHT22;56302;52.322;5.926;2023-05-19T05:06:44;5.60;82.30
69189;DHT22;56302;52.322;5.926;2023-05-19T05:09:14;5.60;82.60
69189;DHT22;56302;52.322;5.926;2023-05-19T05:11:40;5.70;82.70
69189;DHT22;56302;52.322;5.926;2023-05-19T05:14:06;5.70;82.90
69189;DHT22;56302;52.322;5.926;2023-05-19T05:16:32;5.70;83.00
69189;DHT22;56302;52.322;5.926;2023-05-19T05:18:59;5.80;83.50
69189;DHT22;56302;52.322;5.926;2023-05-19T05:21:25;5.80;83.80
69189;DHT22;56302;52.322;5.926;2023-05-19T05:23:51;5.90;83.80
69189;DHT22;56302;52.322;5.926;2023-05-19T05:26:18;5.90;83.90
69189;DHT22;56302;52.322;5.926;2023-05-19T05:28:44;6.00;84.80
69189;DHT22;56302;52.322;5.926;2023-05-19T05:31:10;6.00;84.90
69189;DHT22;56302;52.322;5.926;2023-05-19T05:33:37;6.10;85.50
69189;DHT22;56302;52.322;5.926;2023-05-19T05:36:03;6.20;86.50
69189;DHT22;56302;52.322;5.926;2023-05-19T05:38:29;6.30;87.60
69189;DHT22;56302;52.322;5.926;2023-05-19T05:40:54;6.40;89.50
69189;DHT22;56302;52.322;5.926;2023-05-19T05:43:20;6.50;90.50
69189;DHT22;56302;52.322;5.926;2023-05-19T05:45:45;6.60;91.20
69189;DHT22;56302;52.322;5.926;2023-05-19T05:48:11;6.80;91.90
69189;DHT22;56302;52.322;5.926;2023-05-19T05:50:37;6.90;92.60
69189;DHT22;56302;52.322;5.926;2023-05-19T05:53:04;7.00;93.10
69189;DHT22;56302;52.322;5.926;2023-05-19T05:55:31;7.10;93.40
69189;DHT22;56302;52.322;5.926;2023-05-19T05:57:56;7.20;93.50
69189;DHT22;56302;52.322;5.926;2023-05-19T06:00:23;7.30;93.70
69189;DHT22;56302;52.322;5.926;2023-05-19T06:02:50;7.40;93.60
69189;DHT22;56302;52.322;5.926;2023-05-19T06:05:16;7.50;93.40
69189;DHT22;56302;52.322;5.926;2023-05-19T06:07:41;7.60;93.30
69189;DHT22;56302;52.322;5.926;2023-05-19T06:10:08;7.70;93.10
69189;DHT22;56302;52.322;5.926;2023-05-19T06:12:34;7.80;92.70
69189;DHT22;56302;52.322;5.926;2023-05-19T06:15:01;7.90;92.70
69189;DHT22;56302;52.322;5.926;2023-05-19T06:17:27;8.10;93.00
69189;DHT22;56302;52.322;5.926;2023-05-19T06:19:53;8.30;93.10
69189;DHT22;56302;52.322;5.926;2023-05-19T06:22:18;8.40;93.00
69189;DHT22;56302;52.322;5.926;2023-05-19T06:24:44;8.60;92.40
69189;DHT22;56302;52.322;5.926;2023-05-19T06:27:09;8.80;91.60
69189;DHT22;56302;52.322;5.926;2023-05-19T06:29:35;9.00;91.00
69189;DHT22;56302;52.322;5.926;2023-05-19T06:32:01;9.30;90.40
69189;DHT22;56302;52.322;5.926;2023-05-19T06:34:26;9.50;90.20
69189;DHT22;56302;52.322;5.926;2023-05-19T06:36:55;9.70;89.30
69189;DHT22;56302;52.322;5.926;2023-05-19T06:39:20;10.00;89.70
69189;DHT22;56302;52.322;5.926;2023-05-19T06:41:46;10.20;88.80
69189;DHT22;56302;52.322;5.926;2023-05-19T06:44:12;10.50;87.70
69189;DHT22;56302;52.322;5.926;2023-05-19T06:46:37;10.70;86.30
69189;DHT22;56302;52.322;5.926;2023-05-19T06:49:03;10.90;84.50
69189;DHT22;56302;52.322;5.926;2023-05-19T06:51:28;11.10;81.70
69189;DHT22;56302;52.322;5.926;2023-05-19T06:53:54;11.40;80.80
69189;DHT22;56302;52.322;5.926;2023-05-19T06:56:19;11.50;80.50
69189;DHT22;56302;52.322;5.926;2023-05-19T06:58:47;11.80;78.90
69189;DHT22;56302;52.322;5.926;2023-05-19T07:01:12;12.00;79.40
69189;DHT22;56302;52.322;5.926;2023-05-19T07:03:38;12.20;79.20
69189;DHT22;56302;52.322;5.926;2023-05-19T07:06:03;12.50;77.40
69189;DHT22;56302;52.322;5.926;2023-05-19T07:08:29;12.60;76.20
69189;DHT22;56302;52.322;5.926;2023-05-19T07:10:54;12.80;75.90
69189;DHT22;56302;52.322;5.926;2023-05-19T07:13:20;12.90;75.60
69189;DHT22;56302;52.322;5.926;2023-05-19T07:15:46;13.10;75.30
69189;DHT22;56302;52.322;5.926;2023-05-19T07:18:13;13.30;72.80
69189;DHT22;56302;52.322;5.926;2023-05-19T07:20:39;13.40;71.60
69189;DHT22;56302;52.322;5.926;2023-05-19T07:23:04;13.50;71.30
69189;DHT22;56302;52.322;5.926;2023-05-19T07:25:30;13.50;71.50
69189;DHT22;56302;52.322;5.926;2023-05-19T07:27:56;13.60;71.50
69189;DHT22;56302;52.322;5.926;2023-05-19T07:30:21;13.70;71.50
69189;DHT22;56302;52.322;5.926;2023-05-19T07:32:47;13.90;72.10
69189;DHT22;56302;52.322;5.926;2023-05-19T07:35:12;14.00;71.60
69189;DHT22;56302;52.322;5.926;2023-05-19T07:37:38;14.00;69.70
69189;DHT22;56302;52.322;5.926;2023-05-19T07:40:04;14.00;68.10
69189;DHT22;56302;52.322;5.926;2023-05-19T07:42:31;14.00;69.20
69189;DHT22;56302;52.322;5.926;2023-05-19T07:44:56;14.10;68.80
69189;DHT22;56302;52.322;5.926;2023-05-19T07:47:22;14.20;68.50
69189;DHT22;56302;52.322;5.926;2023-05-19T07:49:47;14.30;67.60
69189;DHT22;56302;52.322;5.926;2023-05-19T07:52:13;14.40;67.20
69189;DHT22;56302;52.322;5.926;2023-05-19T07:54:39;14.40;67.10
69189;DHT22;56302;52.322;5.926;2023-05-19T07:57:04;14.40;68.00
69189;DHT22;56302;52.322;5.926;2023-05-19T07:59:30;14.30;67.40
69189;DHT22;56302;52.322;5.926;2023-05-19T08:01:56;14.20;66.90
69189;DHT22;56302;52.322;5.926;2023-05-19T08:04:21;14.20;66.10
69189;DHT22;56302;52.322;5.926;2023-05-19T08:06:47;14.20;66.30
69189;DHT22;56302;52.322;5.926;2023-05-19T08:09:12;14.40;66.60
69189;DHT22;56302;52.322;5.926;2023-05-19T08:11:38;14.50;66.30
69189;DHT22;56302;52.322;5.926;2023-05-19T08:14:03;14.50;66.30
69189;DHT22;56302;52.322;5.926;2023-05-19T08:16:29;14.80;65.50
69189;DHT22;56302;52.322;5.926;2023-05-19T08:18:55;14.90;63.80
69189;DHT22;56302;52.322;5.926;2023-05-19T08:21:21;15.00;62.90
69189;DHT22;56302;52.322;5.926;2023-05-19T08:23:46;15.10;64.40
69189;DHT22;56302;52.322;5.926;2023-05-19T08:26:12;15.30;64.10
69189;DHT22;56302;52.322;5.926;2023-05-19T08:28:37;15.40;61.50
69189;DHT22;56302;52.322;5.926;2023-05-19T08:31:03;15.40;62.40
69189;DHT22;56302;52.322;5.926;2023-05-19T08:33:28;15.60;62.00
69189;DHT22;56302;52.322;5.926;2023-05-19T08:35:55;15.70;61.10
69189;DHT22;56302;52.322;5.926;2023-05-19T08:38:22;15.70;58.60
69189;DHT22;56302;52.322;5.926;2023-05-19T08:40:48;15.60;58.50
69189;DHT22;56302;52.322;5.926;2023-05-19T08:43:13;15.60;59.70
69189;DHT22;56302;52.322;5.926;2023-05-19T08:45:44;15.70;58.30
69189;DHT22;56302;52.322;5.926;2023-05-19T08:48:13;15.70;60.00
69189;DHT22;56302;52.322;5.926;2023-05-19T08:50:49;15.90;60.00
69189;DHT22;56302;52.322;5.926;2023-05-19T08:53:19;16.00;59.40
69189;DHT22;56302;52.322;5.926;2023-05-19T08:55:57;16.10;58.20
69189;DHT22;56302;52.322;5.926;2023-05-19T08:58:25;16.30;59.60
69189;DHT22;56302;52.322;5.926;2023-05-19T09:00:52;16.50;58.40
69189;DHT22;56302;52.322;5.926;2023-05-19T09:03:19;16.70;56.70
69189;DHT22;56302;52.322;5.926;2023-05-19T09:05:45;16.70;54.60
69189;DHT22;56302;52.322;5.926;2023-05-19T09:08:11;16.80;53.70
69189;DHT22;56302;52.322;5.926;2023-05-19T09:10:37;16.80;54.00
69189;DHT22;56302;52.322;5.926;2023-05-19T09:13:04;16.80;54.00
69189;DHT22;56302;52.322;5.926;2023-05-19T09:15:30;16.80;53.10
69189;DHT22;56302;52.322;5.926;2023-05-19T09:18:13;16.90;52.30
69189;DHT22;56302;52.322;5.926;2023-05-19T09:20:41;16.90;51.30
69189;DHT22;56302;52.322;5.926;2023-05-19T09:23:14;16.80;52.00
69189;DHT22;56302;52.322;5.926;2023-05-19T09:25:50;16.80;52.70
69189;DHT22;56302;52.322;5.926;2023-05-19T09:28:22;16.80;51.90
69189;DHT22;56302;52.322;5.926;2023-05-19T09:30:48;16.90;52.90
69189;DHT22;56302;52.322;5.926;2023-05-19T09:33:18;17.10;51.80
69189;DHT22;56302;52.322;5.926;2023-05-19T09:35:47;17.10;52.40
69189;DHT22;56302;52.322;5.926;2023-05-19T09:38:17;17.10;52.80
69189;DHT22;56302;52.322;5.926;2023-05-19T09:40:43;17.20;51.20
69189;DHT22;56302;52.322;5.926;2023-05-19T09:43:08;17.30;52.50
69189;DHT22;56302;52.322;5.926;2023-05-19T09:45:34;17.50;50.70
69189;DHT22;56302;52.322;5.926;2023-05-19T09:48:03;17.60;51.20
69189;DHT22;56302;52.322;5.926;2023-05-19T09:50:29;17.50;50.60
69189;DHT22;56302;52.322;5.926;2023-05-19T09:52:56;17.50;48.80
69189;DHT22;56302;52.322;5.926;2023-05-19T09:55:25;17.30;48.90
69189;DHT22;56302;52.322;5.926;2023-05-19T09:57:54;17.30;50.40
69189;DHT22;56302;52.322;5.926;2023-05-19T10:00:21;17.30;49.80
69189;DHT22;56302;52.322;5.926;2023-05-19T10:02:48;17.50;50.80
69189;DHT22;56302;52.322;5.926;2023-05-19T10:05:18;17.70;50.10
69189;DHT22;56302;52.322;5.926;2023-05-19T10:07:54;17.60;48.60
69189;DHT22;56302;52.322;5.926;2023-05-19T10:10:21;17.60;48.10
69189;DHT22;56302;52.322;5.926;2023-05-19T10:12:47;17.60;48.20
69189;DHT22;56302;52.322;5.926;2023-05-19T10:15:15;17.50;48.40
69189;DHT22;56302;52.322;5.926;2023-05-19T10:17:42;17.50;49.30
69189;DHT22;56302;52.322;5.926;2023-05-19T10:20:12;17.50;49.00
69189;DHT22;56302;52.322;5.926;2023-05-19T10:22:39;17.60;49.50
69189;DHT22;56302;52.322;5.926;2023-05-19T10:25:05;17.50;48.50
69189;DHT22;56302;52.322;5.926;2023-05-19T10:27:36;17.40;48.60
69189;DHT22;56302;52.322;5.926;2023-05-19T10:30:16;17.30;47.30
69189;DHT22;56302;52.322;5.926;2023-05-19T10:32:43;17.40;49.60
69189;DHT22;56302;52.322;5.926;2023-05-19T10:35:23;17.60;48.50
69189;DHT22;56302;52.322;5.926;2023-05-19T10:38:14;17.60;49.40
69189;DHT22;56302;52.322;5.926;2023-05-19T10:43:58;17.90;47.70
69189;DHT22;56302;52.322;5.926;2023-05-19T10:46:28;18.10;48.70
69189;DHT22;56302;52.322;5.926;2023-05-19T10:48:54;18.10;47.10
69189;DHT22;56302;52.322;5.926;2023-05-19T10:51:20;18.10;47.40
69189;DHT22;56302;52.322;5.926;2023-05-19T10:53:52;18.10;47.20
69189;DHT22;56302;52.322;5.926;2023-05-19T10:56:31;18.20;48.10
69189;DHT22;56302;52.322;5.926;2023-05-19T10:58:59;18.40;48.90
69189;DHT22;56302;52.322;5.926;2023-05-19T11:01:34;18.50;47.50
69189;DHT22;56302;52.322;5.926;2023-05-19T11:04:04;18.50;45.30
69189;DHT22;56302;52.322;5.926;2023-05-19T11:06:34;18.50;46.10
69189;DHT22;56302;52.322;5.926;2023-05-19T11:09:14;18.60;47.40
69189;DHT22;56302;52.322;5.926;2023-05-19T11:11:50;18.60;46.10
69189;DHT22;56302;52.322;5.926;2023-05-19T11:14:18;18.60;45.80
69189;DHT22;56302;52.322;5.926;2023-05-19T11:16:48;18.70;46.70
69189;DHT22;56302;52.322;5.926;2023-05-19T11:19:18;18.80;45.60
69189;DHT22;56302;52.322;5.926;2023-05-19T11:21:51;18.80;45.30
69189;DHT22;56302;52.322;5.926;2023-05-19T11:27:29;18.80;45.40
69189;DHT22;56302;52.322;5.926;2023-05-19T11:29:59;18.80;45.30
69189;DHT22;56302;52.322;5.926;2023-05-19T11:32:27;18.70;43.90
69189;DHT22;56302;52.322;5.926;2023-05-19T11:34:54;18.70;44.60
69189;DHT22;56302;52.322;5.926;2023-05-19T11:37:20;18.70;44.50
69189;DHT22;56302;52.322;5.926;2023-05-19T11:39:46;18.70;44.00
69189;DHT22;56302;52.322;5.926;2023-05-19T11:42:12;18.70;43.80
69189;DHT22;56302;52.322;5.926;2023-05-19T11:44:37;18.70;45.70
69189;DHT22;56302;52.322;5.926;2023-05-19T11:47:05;18.80;45.20
69189;DHT22;56302;52.322;5.926;2023-05-19T11:49:31;18.80;45.20
69189;DHT22;56302;52.322;5.926;2023-05-19T11:51:59;18.80;44.00
69189;DHT22;56302;52.322;5.926;2023-05-19T11:54:30;18.80;44.00
69189;DHT22;56302;52.322;5.926;2023-05-19T11:56:58;18.90;45.30
69189;DHT22;56302;52.322;5.926;2023-05-19T11:59:33;18.90;45.40
69189;DHT22;56302;52.322;5.926;2023-05-19T12:02:03;19.00;43.80
69189;DHT22;56302;52.322;5.926;2023-05-19T12:04:38;19.10;46.10
69189;DHT22;56302;52.322;5.926;2023-05-19T12:07:04;19.20;44.30
69189;DHT22;56302;52.322;5.926;2023-05-19T12:09:29;19.20;46.00
69189;DHT22;56302;52.322;5.926;2023-05-19T12:11:55;19.10;44.70
69189;DHT22;56302;52.322;5.926;2023-05-19T12:14:20;19.00;46.10
69189;DHT22;56302;52.322;5.926;2023-05-19T12:16:46;19.00;44.40
69189;DHT22;56302;52.322;5.926;2023-05-19T12:19:11;18.90;44.20
69189;DHT22;56302;52.322;5.926;2023-05-19T12:21:37;18.90;45.60
69189;DHT22;56302;52.322;5.926;2023-05-19T12:24:03;19.00;45.80
69189;DHT22;56302;52.322;5.926;2023-05-19T12:26:30;19.00;46.60
69189;DHT22;56302;52.322;5.926;2023-05-19T12:28:56;19.00;44.70
69189;DHT22;56302;52.322;5.926;2023-05-19T12:31:22;19.00;45.30
69189;DHT22;56302;52.322;5.926;2023-05-19T12:33:48;19.00;46.70
69189;DHT22;56302;52.322;5.926;2023-05-19T12:36:17;19.00;46.90
69189;DHT22;56302;52.322;5.926;2023-05-19T12:38:44;19.10;47.50
69189;DHT22;56302;52.322;5.926;2023-05-19T12:41:10;19.20;45.50
69189;DHT22;56302;52.322;5.926;2023-05-19T12:43:37;19.20;45.60
69189;DHT22;56302;52.322;5.926;2023-05-19T12:46:12;19.20;45.80
69189;DHT22;56302;52.322;5.926;2023-05-19T12:48:42;19.20;45.80
69189;DHT22;56302;52.322;5.926;2023-05-19T12:51:08;19.20;46.20
69189;DHT22;56302;52.322;5.926;2023-05-19T12:53:35;19.10;46.30
69189;DHT22;56302;52.322;5.926;2023-05-19T12:56:00;18.90;45.00
69189;DHT22;56302;52.322;5.926;2023-05-19T12:58:34;18.80;45.60
69189;DHT22;56302;52.322;5.926;2023-05-19T13:01:01;18.70;45.10
69189;DHT22;56302;52.322;5.926;2023-05-19T13:03:27;18.70;45.00
69189;DHT22;56302;52.322;5.926;2023-05-19T13:05:52;18.70;45.40
69189;DHT22;56302;52.322;5.926;2023-05-19T13:08:19;18.60;45.80
69189;DHT22;56302;52.322;5.926;2023-05-19T13:10:46;18.60;45.60
69189;DHT22;56302;52.322;5.926;2023-05-19T13:13:13;18.50;46.40
69189;DHT22;56302;52.322;5.926;2023-05-19T13:15:45;18.50;46.60
69189;DHT22;56302;52.322;5.926;2023-05-19T13:18:13;18.40;46.00
69189;DHT22;56302;52.322;5.926;2023-05-19T13:20:40;18.40;45.80
69189;DHT22;56302;52.322;5.926;2023-05-19T13:23:06;18.50;46.60
69189;DHT22;56302;52.322;5.926;2023-05-19T13:25:32;18.60;45.40
69189;DHT22;56302;52.322;5.926;2023-05-19T13:27:59;18.60;46.50
69189;DHT22;56302;52.322;5.926;2023-05-19T13:30:26;18.70;45.90
69189;DHT22;56302;52.322;5.926;2023-05-19T13:32:52;18.50;44.10
69189;DHT22;56302;52.322;5.926;2023-05-19T13:35:17;18.40;45.00
69189;DHT22;56302;52.322;5.926;2023-05-19T13:37:43;18.30;45.50
69189;DHT22;56302;52.322;5.926;2023-05-19T13:40:09;18.30;46.40
69189;DHT22;56302;52.322;5.926;2023-05-19T13:42:35;18.40;47.40
69189;DHT22;56302;52.322;5.926;2023-05-19T13:45:02;18.40;46.60
69189;DHT22;56302;52.322;5.926;2023-05-19T13:47:28;18.40;44.40
69189;DHT22;56302;52.322;5.926;2023-05-19T13:49:54;18.40;45.30
69189;DHT22;56302;52.322;5.926;2023-05-19T13:52:20;18.30;45.50
69189;DHT22;56302;52.322;5.926;2023-05-19T13:54:46;18.30;45.80
69189;DHT22;56302;52.322;5.926;2023-05-19T13:57:12;18.30;46.40
69189;DHT22;56302;52.322;5.926;2023-05-19T13:59:38;18.30;46.20
69189;DHT22;56302;52.322;5.926;2023-05-19T14:02:03;18.30;46.10
69189;DHT22;56302;52.322;5.926;2023-05-19T14:04:29;18.30;46.20
69189;DHT22;56302;52.322;5.926;2023-05-19T14:06:55;18.40;45.90
69189;DHT22;56302;52.322;5.926;2023-05-19T14:09:21;18.40;47.10
69189;DHT22;56302;52.322;5.926;2023-05-19T14:11:47;18.30;45.80
69189;DHT22;56302;52.322;5.926;2023-05-19T14:14:12;18.30;46.00
69189;DHT22;56302;52.322;5.926;2023-05-19T14:16:39;18.30;46.20
69189;DHT22;56302;52.322;5.926;2023-05-19T14:19:05;18.40;46.00
69189;DHT22;56302;52.322;5.926;2023-05-19T14:21:31;18.40;45.70
69189;DHT22;56302;52.322;5.926;2023-05-19T14:23:57;18.40;45.60
69189;DHT22;56302;52.322;5.926;2023-05-19T14:26:22;18.40;46.10
69189;DHT22;56302;52.322;5.926;2023-05-19T14:28:48;18.50;46.50
69189;DHT22;56302;52.322;5.926;2023-05-19T14:31:14;18.50;45.80
69189;DHT22;56302;52.322;5.926;2023-05-19T14:33:40;18.40;44.90
69189;DHT22;56302;52.322;5.926;2023-05-19T14:36:06;18.40;44.90
69189;DHT22;56302;52.322;5.926;2023-05-19T14:38:32;18.30;45.20
69189;DHT22;56302;52.322;5.926;2023-05-19T14:40:57;18.30;45.90
69189;DHT22;56302;52.322;5.926;2023-05-19T14:43:23;18.30;45.60
69189;DHT22;56302;52.322;5.926;2023-05-19T14:45:49;18.30;45.70
69189;DHT22;56302;52.322;5.926;2023-05-19T14:48:14;18.30;44.10
69189;DHT22;56302;52.322;5.926;2023-05-19T14:50:40;18.20;44.30
69189;DHT22;56302;52.322;5.926;2023-05-19T14:53:06;18.20;44.80
69189;DHT22;56302;52.322;5.926;2023-05-19T14:55:31;18.20;45.30
69189;DHT22;56302;52.322;5.926;2023-05-19T14:57:57;18.20;45.80
69189;DHT22;56302;52.322;5.926;2023-05-19T15:00:22;18.30;46.00
69189;DHT22;56302;52.322;5.926;2023-05-19T15:02:51;18.30;45.10
69189;DHT22;56302;52.322;5.926;2023-05-19T15:05:16;18.30;45.10
69189;DHT22;56302;52.322;5.926;2023-05-19T15:07:42;18.30;45.80
69189;DHT22;56302;52.322;5.926;2023-05-19T15:10:08;18.30;45.70
69189;DHT22;56302;52.322;5.926;2023-05-19T15:12:33;18.30;45.20
69189;DHT22;56302;52.322;5.926;2023-05-19T15:14:59;18.20;45.70
69189;DHT22;56302;52.322;5.926;2023-05-19T15:17:25;18.20;46.20
69189;DHT22;56302;52.322;5.926;2023-05-19T15:19:50;18.20;43.90
69189;DHT22;56302;52.322;5.926;2023-05-19T15:22:16;18.20;44.90
69189;DHT22;56302;52.322;5.926;2023-05-19T15:24:41;18.10;44.90
69189;DHT22;56302;52.322;5.926;2023-05-19T15:27:07;18.10;44.90
69189;DHT22;56302;52.322;5.926;2023-05-19T15:29:33;18.10;44.90
69189;DHT22;56302;52.322;5.926;2023-05-19T15:31:59;18.10;45.40
69189;DHT22;56302;52.322;5.926;2023-05-19T15:34:25;18.20;45.30
69189;DHT22;56302;52.322;5.926;2023-05-19T15:36:51;18.20;44.50
69189;DHT22;56302;52.322;5.926;2023-05-19T15:39:16;18.10;44.20
69189;DHT22;56302;52.322;5.926;2023-05-19T15:41:42;18.10;45.30
69189;DHT22;56302;52.322;5.926;2023-05-19T15:44:07;18.10;45.70
69189;DHT22;56302;52.322;5.926;2023-05-19T15:46:33;18.20;45.40
69189;DHT22;56302;52.322;5.926;2023-05-19T15:48:59;18.20;45.90
69189;DHT22;56302;52.322;5.926;2023-05-19T15:51:25;18.20;44.30
69189;DHT22;56302;52.322;5.926;2023-05-19T15:53:51;18.20;45.70